sensor_id;sensor_type;location;lat;lon;timestamp;pressure;altitude;pressure_sealevel;temperature;humidity
23118;BME280;11728;50.624;6.014;2022-07-26T00:00:10;98192.03;;;19.66;64.06
23118;BME280;11728;50.624;6.014;2022-07-26T00:05:24;98193.94;;;19.64;64.09
23118;BME280;11728;50.624;6.014;2022-07-26T00:10:27;98183.50;;;19.60;64.30
23118;BME280;11728;50.624;6.014;2022-07-26T00:15:44;98181.75;;;19.59;64.65
23118;BME280;11728;50.624;6.014;2022-07-26T00:20:58;98181.84;;;19.57;64.90
23118;BME280;11728;50.624;6.014;2022-07-26T00:26:04;98180.50;;;19.50;65.04
23118;BME280;11728;50.624;6.014;2022-07-26T00:31:17;98181.28;;;19.52;64.98
23118;BME280;11728;50.624;6.014;2022-07-26T00:36:32;98186.00;;;19.63;64.56
23118;BME280;11728;50.624;6.014;2022-07-26T00:41:33;98183.75;;;19.55;64.98
23118;BME280;11728;50.624;6.014;2022-07-26T00:46:52;98190.66;;;19.45;65.93
23118;BME280;11728;50.624;6.014;2022-07-26T00:52:05;98198.84;;;19.42;65.90
23118;BME280;11728;50.624;6.014;2022-07-26T00:57:06;98189.31;;;19.52;65.86
23118;BME280;11728;50.624;6.014;2022-07-26T01:02:25;98193.63;;;19.55;65.66
23118;BME280;11728;50.624;6.014;2022-07-26T01:07:38;98189.59;;;19.48;66.44
23118;BME280;11728;50.624;6.014;2022-07-26T01:12:41;98193.75;;;19.38;66.87
23118;BME280;11728;50.624;6.014;2022-07-26T01:17:54;98190.66;;;19.30;67.27
23118;BME280;11728;50.624;6.014;2022-07-26T01:23:11;98194.91;;;19.34;67.51
23118;BME280;11728;50.624;6.014;2022-07-26T01:28:11;98187.66;;;19.21;68.06
23118;BME280;11728;50.624;6.014;2022-07-26T01:33:27;98176.34;;;19.00;68.95
23118;BME280;11728;50.624;6.014;2022-07-26T01:38:46;98178.03;;;18.72;70.16
23118;BME280;11728;50.624;6.014;2022-07-26T01:43:49;98180.19;;;18.65;70.82
23118;BME280;11728;50.624;6.014;2022-07-26T01:49:02;98189.44;;;18.75;71.02
23118;BME280;11728;50.624;6.014;2022-07-26T01:54:21;98196.16;;;18.82;71.08
23118;BME280;11728;50.624;6.014;2022-07-26T01:59:21;98193.22;;;18.87;71.09
23118;BME280;11728;50.624;6.014;2022-07-26T02:04:34;98192.53;;;18.83;71.73
23118;BME280;11728;50.624;6.014;2022-07-26T02:10:12;98197.69;;;18.86;71.96
23118;BME280;11728;50.624;6.014;2022-07-26T02:15:13;98204.00;;;18.85;72.15
23118;BME280;11728;50.624;6.014;2022-07-26T02:20:15;98205.13;;;18.81;72.76
23118;BME280;11728;50.624;6.014;2022-07-26T02:25:22;98202.38;;;18.83;72.94
23118;BME280;11728;50.624;6.014;2022-07-26T02:30:28;98210.28;;;18.84;72.99
23118;BME280;11728;50.624;6.014;2022-07-26T02:35:41;98213.50;;;18.91;72.68
23118;BME280;11728;50.624;6.014;2022-07-26T02:40:57;98215.47;;;18.87;72.95
23118;BME280;11728;50.624;6.014;2022-07-26T02:46:00;98212.22;;;18.82;73.42
23118;BME280;11728;50.624;6.014;2022-07-26T02:51:17;98210.84;;;18.75;73.71
23118;BME280;11728;50.624;6.014;2022-07-26T02:56:30;98214.63;;;18.71;74.52
23118;BME280;11728;50.624;6.014;2022-07-26T03:01:34;98227.59;;;18.79;74.60
23118;BME280;11728;50.624;6.014;2022-07-26T03:06:50;98222.50;;;18.74;74.85
23118;BME280;11728;50.624;6.014;2022-07-26T03:12:05;98236.91;;;18.72;75.23
23118;BME280;11728;50.624;6.014;2022-07-26T03:17:06;98222.28;;;18.77;75.01
23118;BME280;11728;50.624;6.014;2022-07-26T03:22:21;98228.94;;;18.70;75.58
23118;BME280;11728;50.624;6.014;2022-07-26T03:27:37;98222.53;;;18.73;75.53
23118;BME280;11728;50.624;6.014;2022-07-26T03:32:38;98236.56;;;18.78;75.44
23118;BME280;11728;50.624;6.014;2022-07-26T03:37:51;98240.72;;;18.83;75.26
23118;BME280;11728;50.624;6.014;2022-07-26T03:43:07;98242.41;;;18.84;75.46
23118;BME280;11728;50.624;6.014;2022-07-26T03:48:13;98233.78;;;18.79;75.61
23118;BME280;11728;50.624;6.014;2022-07-26T03:53:30;98235.50;;;18.80;75.55
23118;BME280;11728;50.624;6.014;2022-07-26T03:58:42;98251.41;;;18.83;75.59
23118;BME280;11728;50.624;6.014;2022-07-26T04:03:46;98252.09;;;18.87;75.60
23118;BME280;11728;50.624;6.014;2022-07-26T04:09:03;98248.91;;;18.80;76.18
23118;BME280;11728;50.624;6.014;2022-07-26T04:14:16;98256.94;;;18.80;76.25
23118;BME280;11728;50.624;6.014;2022-07-26T04:19:17;98257.88;;;18.79;76.49
23118;BME280;11728;50.624;6.014;2022-07-26T04:24:33;98249.50;;;18.85;76.25
23118;BME280;11728;50.624;6.014;2022-07-26T04:29:45;98254.59;;;18.74;76.83
23118;BME280;11728;50.624;6.014;2022-07-26T04:34:49;98255.19;;;18.79;76.99
23118;BME280;11728;50.624;6.014;2022-07-26T04:40:02;98255.97;;;18.81;77.01
23118;BME280;11728;50.624;6.014;2022-07-26T04:45:21;98258.31;;;18.87;77.05
23118;BME280;11728;50.624;6.014;2022-07-26T04:50:22;98263.91;;;18.83;77.38
23118;BME280;11728;50.624;6.014;2022-07-26T04:55:37;98269.88;;;18.88;77.13
23118;BME280;11728;50.624;6.014;2022-07-26T05:00:53;98267.47;;;18.83;77.68
23118;BME280;11728;50.624;6.014;2022-07-26T05:05:56;98266.69;;;18.81;77.62
23118;BME280;11728;50.624;6.014;2022-07-26T05:11:09;98266.00;;;18.78;78.56
23118;BME280;11728;50.624;6.014;2022-07-26T05:16:24;98268.41;;;18.82;78.37
23118;BME280;11728;50.624;6.014;2022-07-26T05:21:25;98273.50;;;19.02;78.38
23118;BME280;11728;50.624;6.014;2022-07-26T05:26:42;98271.69;;;19.03;77.84
23118;BME280;11728;50.624;6.014;2022-07-26T05:31:57;98269.56;;;19.09;77.91
23118;BME280;11728;50.624;6.014;2022-07-26T05:36:58;98262.31;;;19.11;77.78
23118;BME280;11728;50.624;6.014;2022-07-26T05:42:14;98261.84;;;19.03;78.23
23118;BME280;11728;50.624;6.014;2022-07-26T05:47:27;98262.28;;;18.96;79.08
23118;BME280;11728;50.624;6.014;2022-07-26T05:52:30;98273.84;;;18.96;78.84
23118;BME280;11728;50.624;6.014;2022-07-26T05:57:43;98275.06;;;18.91;79.38
23118;BME280;11728;50.624;6.014;2022-07-26T06:03:00;98274.22;;;18.90;79.86
23118;BME280;11728;50.624;6.014;2022-07-26T06:08:22;98286.72;;;18.90;80.15
23118;BME280;11728;50.624;6.014;2022-07-26T06:13:23;98285.06;;;18.87;80.11
23118;BME280;11728;50.624;6.014;2022-07-26T06:18:32;98290.59;;;18.84;80.68
23118;BME280;11728;50.624;6.014;2022-07-26T06:23:39;98293.63;;;18.94;80.37
23118;BME280;11728;50.624;6.014;2022-07-26T06:28:49;98297.00;;;18.97;80.82
23118;BME280;11728;50.624;6.014;2022-07-26T06:34:05;98301.53;;;19.12;80.26
23118;BME280;11728;50.624;6.014;2022-07-26T06:39:06;98306.88;;;19.12;80.29
23118;BME280;11728;50.624;6.014;2022-07-26T06:44:18;98321.03;;;19.14;80.74
23118;BME280;11728;50.624;6.014;2022-07-26T06:49:37;98316.91;;;19.24;80.32
23118;BME280;11728;50.624;6.014;2022-07-26T06:54:38;98327.44;;;19.27;80.03
23118;BME280;11728;50.624;6.014;2022-07-26T06:59:53;98324.31;;;19.34;79.87
23118;BME280;11728;50.624;6.014;2022-07-26T07:05:06;98331.50;;;19.34;79.97
23118;BME280;11728;50.624;6.014;2022-07-26T07:10:10;98338.31;;;19.39;80.16
23118;BME280;11728;50.624;6.014;2022-07-26T07:15:26;98345.94;;;19.47;79.38
23118;BME280;11728;50.624;6.014;2022-07-26T07:20:40;98346.50;;;19.52;79.33
23118;BME280;11728;50.624;6.014;2022-07-26T07:25:44;98349.38;;;19.49;79.31
23118;BME280;11728;50.624;6.014;2022-07-26T07:30:56;98357.59;;;19.46;79.69
23118;BME280;11728;50.624;6.014;2022-07-26T07:36:15;98360.78;;;19.37;79.80
23118;BME280;11728;50.624;6.014;2022-07-26T07:41:16;98357.50;;;19.47;79.66
23118;BME280;11728;50.624;6.014;2022-07-26T07:46:30;98361.72;;;19.67;79.21
23118;BME280;11728;50.624;6.014;2022-07-26T07:51:46;98357.63;;;19.91;78.40
23118;BME280;11728;50.624;6.014;2022-07-26T07:56:52;98353.44;;;20.16;77.48
23118;BME280;11728;50.624;6.014;2022-07-26T08:02:07;98356.81;;;20.33;76.89
23118;BME280;11728;50.624;6.014;2022-07-26T08:07:20;98356.00;;;20.47;75.51
23118;BME280;11728;50.624;6.014;2022-07-26T08:12:25;98363.41;;;20.71;75.17
23118;BME280;11728;50.624;6.014;2022-07-26T08:17:35;98348.84;;;21.17;73.66
23118;BME280;11728;50.624;6.014;2022-07-26T08:22:51;98351.28;;;21.62;72.12
23118;BME280;11728;50.624;6.014;2022-07-26T08:27:52;98347.19;;;23.10;68.88
23118;BME280;11728;50.624;6.014;2022-07-26T08:33:08;98336.94;;;25.00;62.74
23118;BME280;11728;50.624;6.014;2022-07-26T08:38:25;98354.72;;;24.35;61.30
23118;BME280;11728;50.624;6.014;2022-07-26T08:43:25;98355.06;;;24.31;60.58
23118;BME280;11728;50.624;6.014;2022-07-26T08:48:38;98351.13;;;24.01;60.29
23118;BME280;11728;50.624;6.014;2022-07-26T08:54:01;98354.81;;;24.00;60.03
23118;BME280;11728;50.624;6.014;2022-07-26T08:59:03;98346.81;;;25.56;56.84
23118;BME280;11728;50.624;6.014;2022-07-26T09:04:17;98348.59;;;26.82;52.82
23118;BME280;11728;50.624;6.014;2022-07-26T09:09:28;98357.72;;;26.81;51.42
23118;BME280;11728;50.624;6.014;2022-07-26T09:14:35;98351.41;;;26.80;50.41
23118;BME280;11728;50.624;6.014;2022-07-26T09:19:43;98361.84;;;26.02;51.32
23118;BME280;11728;50.624;6.014;2022-07-26T09:25:02;98349.34;;;27.14;49.66
23118;BME280;11728;50.624;6.014;2022-07-26T09:30:18;98347.06;;;28.55;46.65
23118;BME280;11728;50.624;6.014;2022-07-26T09:35:19;98362.81;;;27.45;46.36
23118;BME280;11728;50.624;6.014;2022-07-26T09:40:32;98359.94;;;26.55;47.81
23118;BME280;11728;50.624;6.014;2022-07-26T09:45:37;98373.28;;;26.37;47.68
23118;BME280;11728;50.624;6.014;2022-07-26T09:50:49;98365.31;;;26.04;48.53
23118;BME280;11728;50.624;6.014;2022-07-26T09:56:05;98375.16;;;26.88;46.77
23118;BME280;11728;50.624;6.014;2022-07-26T10:01:10;98373.50;;;28.72;44.16
23118;BME280;11728;50.624;6.014;2022-07-26T10:06:19;98381.28;;;28.00;43.99
23118;BME280;11728;50.624;6.014;2022-07-26T10:11:55;98384.13;;;26.47;44.99
23118;BME280;11728;50.624;6.014;2022-07-26T10:16:56;98400.25;;;25.08;48.75
23118;BME280;11728;50.624;6.014;2022-07-26T10:23:02;98409.09;;;24.07;52.89
23118;BME280;11728;50.624;6.014;2022-07-26T10:27:56;98412.69;;;22.98;57.92
23118;BME280;11728;50.624;6.014;2022-07-26T10:33:17;98420.84;;;22.71;60.06
23118;BME280;11728;50.624;6.014;2022-07-26T10:38:25;98429.00;;;22.57;62.21
23118;BME280;11728;50.624;6.014;2022-07-26T10:44:11;98432.00;;;22.53;64.32
23118;BME280;11728;50.624;6.014;2022-07-26T10:49:17;98432.06;;;22.78;63.18
23118;BME280;11728;50.624;6.014;2022-07-26T10:54:17;98435.38;;;23.32;60.79
23118;BME280;11728;50.624;6.014;2022-07-26T10:59:31;98415.97;;;24.58;57.14
23118;BME280;11728;50.624;6.014;2022-07-26T11:04:33;98427.34;;;25.63;53.45
23118;BME280;11728;50.624;6.014;2022-07-26T11:09:37;98413.88;;;27.10;50.38
23118;BME280;11728;50.624;6.014;2022-07-26T11:14:50;98414.28;;;27.95;46.22
23118;BME280;11728;50.624;6.014;2022-07-26T11:20:08;98418.28;;;27.82;45.99
23118;BME280;11728;50.624;6.014;2022-07-26T11:25:08;98421.69;;;27.84;45.14
23118;BME280;11728;50.624;6.014;2022-07-26T11:30:24;98418.91;;;27.65;43.91
23118;BME280;11728;50.624;6.014;2022-07-26T11:35:49;98413.34;;;26.44;45.94
23118;BME280;11728;50.624;6.014;2022-07-26T11:40:50;98422.94;;;25.62;47.17
23118;BME280;11728;50.624;6.014;2022-07-26T11:45:59;98427.88;;;24.90;49.21
23118;BME280;11728;50.624;6.014;2022-07-26T11:51:14;98433.28;;;24.56;50.57
23118;BME280;11728;50.624;6.014;2022-07-26T11:56:18;98419.38;;;24.49;50.85
23118;BME280;11728;50.624;6.014;2022-07-26T12:01:31;98413.34;;;25.47;49.50
23118;BME280;11728;50.624;6.014;2022-07-26T12:06:48;98412.13;;;25.62;48.50
23118;BME280;11728;50.624;6.014;2022-07-26T12:11:49;98420.31;;;25.17;48.14
23118;BME280;11728;50.624;6.014;2022-07-26T12:17:16;98422.28;;;24.70;49.23
23118;BME280;11728;50.624;6.014;2022-07-26T12:22:21;98417.06;;;24.56;49.91
23118;BME280;11728;50.624;6.014;2022-07-26T12:27:44;98413.31;;;24.69;48.05
23118;BME280;11728;50.624;6.014;2022-07-26T12:32:46;98409.63;;;25.26;45.69
23118;BME280;11728;50.624;6.014;2022-07-26T12:37:59;98416.53;;;25.30;45.95
23118;BME280;11728;50.624;6.014;2022-07-26T12:43:00;98406.56;;;25.20;46.61
23118;BME280;11728;50.624;6.014;2022-07-26T12:48:09;98406.50;;;24.98;47.00
23118;BME280;11728;50.624;6.014;2022-07-26T12:53:29;98407.00;;;25.03;46.31
23118;BME280;11728;50.624;6.014;2022-07-26T12:58:35;98401.25;;;25.07;45.00
23118;BME280;11728;50.624;6.014;2022-07-26T13:03:44;98402.66;;;25.78;43.17
23118;BME280;11728;50.624;6.014;2022-07-26T13:09:00;98387.09;;;26.44;41.15
23118;BME280;11728;50.624;6.014;2022-07-26T13:14:01;98388.56;;;26.38;41.56
23118;BME280;11728;50.624;6.014;2022-07-26T13:19:14;98375.44;;;28.13;39.26
23118;BME280;11728;50.624;6.014;2022-07-26T13:24:34;98378.94;;;28.25;38.87
23118;BME280;11728;50.624;6.014;2022-07-26T13:29:35;98377.66;;;29.50;36.43
23118;BME280;11728;50.624;6.014;2022-07-26T13:34:51;98366.88;;;29.58;34.81
23118;BME280;11728;50.624;6.014;2022-07-26T13:40:04;98359.28;;;29.62;35.20
23118;BME280;11728;50.624;6.014;2022-07-26T13:45:08;98365.88;;;29.59;35.33
23118;BME280;11728;50.624;6.014;2022-07-26T13:50:25;98364.38;;;28.54;36.26
23118;BME280;11728;50.624;6.014;2022-07-26T13:55:35;98366.88;;;28.08;37.20
23118;BME280;11728;50.624;6.014;2022-07-26T14:00:41;98361.00;;;28.03;36.82
23118;BME280;11728;50.624;6.014;2022-07-26T14:05:57;98375.00;;;27.60;36.42
23118;BME280;11728;50.624;6.014;2022-07-26T14:11:10;98371.31;;;27.31;37.48
23118;BME280;11728;50.624;6.014;2022-07-26T14:16:12;98378.53;;;26.80;37.78
23118;BME280;11728;50.624;6.014;2022-07-26T14:21:28;98387.81;;;26.04;40.36
23118;BME280;11728;50.624;6.014;2022-07-26T14:26:39;98387.13;;;25.69;41.81
23118;BME280;11728;50.624;6.014;2022-07-26T14:31:42;98392.44;;;25.49;42.67
23118;BME280;11728;50.624;6.014;2022-07-26T14:36:58;98385.91;;;25.84;43.02
23118;BME280;11728;50.624;6.014;2022-07-26T14:42:11;98391.00;;;26.51;42.65
23118;BME280;11728;50.624;6.014;2022-07-26T14:47:11;98390.53;;;27.48;40.78
23118;BME280;11728;50.624;6.014;2022-07-26T14:52:27;98389.19;;;27.33;41.71
23118;BME280;11728;50.624;6.014;2022-07-26T14:57:43;98396.00;;;26.87;43.14
23118;BME280;11728;50.624;6.014;2022-07-26T15:23:41;98391.88;;;25.00;47.57
23118;BME280;11728;50.624;6.014;2022-07-26T15:28:48;98398.56;;;24.62;48.47
23118;BME280;11728;50.624;6.014;2022-07-26T15:33:48;98400.00;;;24.55;48.88
23118;BME280;11728;50.624;6.014;2022-07-26T15:39:05;98395.75;;;24.75;48.44
23118;BME280;11728;50.624;6.014;2022-07-26T15:44:19;98407.28;;;24.66;48.64
23118;BME280;11728;50.624;6.014;2022-07-26T15:49:21;98389.50;;;24.85;47.72
23118;BME280;11728;50.624;6.014;2022-07-26T15:54:40;98405.00;;;25.39;46.26
23118;BME280;11728;50.624;6.014;2022-07-26T15:59:53;98404.72;;;25.09;47.33
23118;BME280;11728;50.624;6.014;2022-07-26T16:04:53;98413.31;;;24.69;48.30
23118;BME280;11728;50.624;6.014;2022-07-26T16:10:10;98407.88;;;24.35;49.11
23118;BME280;11728;50.624;6.014;2022-07-26T16:15:23;98406.72;;;24.03;49.91
23118;BME280;11728;50.624;6.014;2022-07-26T16:20:27;98413.81;;;24.16;49.90
23118;BME280;11728;50.624;6.014;2022-07-26T16:25:39;98410.22;;;24.16;49.27
23118;BME280;11728;50.624;6.014;2022-07-26T16:30:55;98408.41;;;24.16;47.89
23118;BME280;11728;50.624;6.014;2022-07-26T16:35:58;98411.59;;;24.21;47.60
23118;BME280;11728;50.624;6.014;2022-07-26T16:41:14;98401.84;;;24.31;47.32
23118;BME280;11728;50.624;6.014;2022-07-26T16:46:30;98408.09;;;24.32;47.17
23118;BME280;11728;50.624;6.014;2022-07-26T16:51:32;98425.22;;;24.20;47.82
23118;BME280;11728;50.624;6.014;2022-07-26T16:56:48;98417.06;;;24.09;47.80
23118;BME280;11728;50.624;6.014;2022-07-26T17:02:02;98429.66;;;23.85;48.53
23118;BME280;11728;50.624;6.014;2022-07-26T17:07:05;98428.38;;;23.78;48.66
23118;BME280;11728;50.624;6.014;2022-07-26T17:12:18;98430.22;;;23.65;48.03
23118;BME280;11728;50.624;6.014;2022-07-26T17:17:31;98443.00;;;23.38;47.21
23118;BME280;11728;50.624;6.014;2022-07-26T17:22:36;98447.56;;;23.26;47.19
23118;BME280;11728;50.624;6.014;2022-07-26T17:27:49;98449.56;;;23.34;47.68
23118;BME280;11728;50.624;6.014;2022-07-26T17:33:04;98448.41;;;23.26;48.98
23118;BME280;11728;50.624;6.014;2022-07-26T17:38:11;98461.66;;;23.17;49.78
23118;BME280;11728;50.624;6.014;2022-07-26T17:43:24;98460.75;;;22.79;51.02
23118;BME280;11728;50.624;6.014;2022-07-26T17:48:40;98460.59;;;22.55;51.92
23118;BME280;11728;50.624;6.014;2022-07-26T17:53:43;98472.88;;;22.33;52.86
23118;BME280;11728;50.624;6.014;2022-07-26T17:58:58;98469.81;;;22.25;53.81
23118;BME280;11728;50.624;6.014;2022-07-26T18:04:13;98483.72;;;22.05;54.95
23118;BME280;11728;50.624;6.014;2022-07-26T18:09:18;98494.88;;;21.99;55.54
23118;BME280;11728;50.624;6.014;2022-07-26T18:14:33;98498.72;;;21.95;55.87
23118;BME280;11728;50.624;6.014;2022-07-26T18:19:50;98490.19;;;21.75;56.78
23118;BME280;11728;50.624;6.014;2022-07-26T18:24:51;98493.09;;;21.58;57.80
23118;BME280;11728;50.624;6.014;2022-07-26T18:30:07;98492.88;;;21.47;57.87
23118;BME280;11728;50.624;6.014;2022-07-26T18:35:20;98472.81;;;21.39;57.98
23118;BME280;11728;50.624;6.014;2022-07-26T18:40:24;98477.25;;;21.26;58.43
23118;BME280;11728;50.624;6.014;2022-07-26T18:45:36;98474.81;;;21.07;59.16
23118;BME280;11728;50.624;6.014;2022-07-26T18:50:55;98479.88;;;20.98;59.47
23118;BME280;11728;50.624;6.014;2022-07-26T18:55:57;98475.09;;;20.89;59.80
23118;BME280;11728;50.624;6.014;2022-07-26T19:01:09;98477.72;;;20.75;60.94
23118;BME280;11728;50.624;6.014;2022-07-26T19:06:25;98471.28;;;20.48;61.79
23118;BME280;11728;50.624;6.014;2022-07-26T19:11:28;98481.44;;;20.28;62.54
23118;BME280;11728;50.624;6.014;2022-07-26T19:16:45;98485.91;;;20.13;63.17
23118;BME280;11728;50.624;6.014;2022-07-26T19:21:58;98495.13;;;19.93;64.20
23118;BME280;11728;50.624;6.014;2022-07-26T19:27:01;98506.53;;;19.81;64.66
23118;BME280;11728;50.624;6.014;2022-07-26T19:32:20;98523.91;;;19.74;65.02
23118;BME280;11728;50.624;6.014;2022-07-26T19:37:40;98528.13;;;19.62;65.62
23118;BME280;11728;50.624;6.014;2022-07-26T19:42:47;98529.66;;;19.51;66.15
23118;BME280;11728;50.624;6.014;2022-07-26T19:47:59;98536.38;;;19.42;67.24
23118;BME280;11728;50.624;6.014;2022-07-26T19:53:15;98538.38;;;19.39;67.46
23118;BME280;11728;50.624;6.014;2022-07-26T19:58:19;98544.63;;;19.23;67.90
23118;BME280;11728;50.624;6.014;2022-07-26T20:03:33;98536.38;;;19.10;68.56
23118;BME280;11728;50.624;6.014;2022-07-26T20:08:49;98542.16;;;19.01;69.09
23118;BME280;11728;50.624;6.014;2022-07-26T20:13:50;98544.06;;;18.99;69.54
23118;BME280;11728;50.624;6.014;2022-07-26T20:19:03;98554.22;;;18.93;69.61
23118;BME280;11728;50.624;6.014;2022-07-26T20:24:19;98559.03;;;18.86;69.79
23118;BME280;11728;50.624;6.014;2022-07-26T20:29:23;98565.63;;;18.79;70.31
23118;BME280;11728;50.624;6.014;2022-07-26T20:34:38;98570.28;;;18.76;70.23
23118;BME280;11728;50.624;6.014;2022-07-26T20:39:54;98568.00;;;18.68;70.52
23118;BME280;11728;50.624;6.014;2022-07-26T20:44:58;98562.88;;;18.64;70.82
23118;BME280;11728;50.624;6.014;2022-07-26T20:50:13;98566.72;;;18.58;71.09
23118;BME280;11728;50.624;6.014;2022-07-26T20:55:26;98561.50;;;18.55;71.33
23118;BME280;11728;50.624;6.014;2022-07-26T21:00:32;98561.50;;;18.55;71.90
23118;BME280;11728;50.624;6.014;2022-07-26T21:05:44;98573.47;;;18.49;71.95
23118;BME280;11728;50.624;6.014;2022-07-26T21:11:00;98568.28;;;18.46;72.26
23118;BME280;11728;50.624;6.014;2022-07-26T21:16:07;98569.22;;;18.45;72.30
23118;BME280;11728;50.624;6.014;2022-07-26T21:21:20;98578.31;;;18.41;72.45
23118;BME280;11728;50.624;6.014;2022-07-26T21:26:36;98575.16;;;18.33;72.62
23118;BME280;11728;50.624;6.014;2022-07-26T21:31:37;98581.22;;;18.36;72.88
23118;BME280;11728;50.624;6.014;2022-07-26T21:36:52;98574.16;;;18.35;73.07
23118;BME280;11728;50.624;6.014;2022-07-26T21:42:06;98578.00;;;18.30;72.75
23118;BME280;11728;50.624;6.014;2022-07-26T21:47:10;98590.78;;;18.23;73.27
23118;BME280;11728;50.624;6.014;2022-07-26T21:52:26;98597.41;;;18.15;73.68
23118;BME280;11728;50.624;6.014;2022-07-26T21:57:42;98594.09;;;18.10;74.04
23118;BME280;11728;50.624;6.014;2022-07-26T22:02:46;98585.19;;;17.91;74.82
23118;BME280;11728;50.624;6.014;2022-07-26T22:08:07;98590.31;;;17.77;75.58
23118;BME280;11728;50.624;6.014;2022-07-26T22:13:17;98587.06;;;17.71;75.79
23118;BME280;11728;50.624;6.014;2022-07-26T22:18:17;98588.34;;;17.62;75.96
23118;BME280;11728;50.624;6.014;2022-07-26T22:23:33;98585.91;;;17.58;76.37
23118;BME280;11728;50.624;6.014;2022-07-26T22:28:48;98592.69;;;17.65;75.98
23118;BME280;11728;50.624;6.014;2022-07-26T22:33:52;98593.13;;;17.74;75.94
23118;BME280;11728;50.624;6.014;2022-07-26T22:39:09;98587.44;;;17.81;76.07
23118;BME280;11728;50.624;6.014;2022-07-26T22:44:22;98589.69;;;17.90;75.78
23118;BME280;11728;50.624;6.014;2022-07-26T22:49:25;98592.63;;;18.03;75.73
23118;BME280;11728;50.624;6.014;2022-07-26T22:54:38;98602.91;;;18.12;76.06
23118;BME280;11728;50.624;6.014;2022-07-26T22:59:57;98607.22;;;17.77;79.26
23118;BME280;11728;50.624;6.014;2022-07-26T23:05:01;98607.03;;;17.44;81.69
23118;BME280;11728;50.624;6.014;2022-07-26T23:10:14;98611.34;;;17.26;83.09
23118;BME280;11728;50.624;6.014;2022-07-26T23:15:30;98609.16;;;17.16;84.66
23118;BME280;11728;50.624;6.014;2022-07-26T23:20:31;98626.75;;;17.00;85.07
23118;BME280;11728;50.624;6.014;2022-07-26T23:25:49;98625.78;;;16.81;85.58
23118;BME280;11728;50.624;6.014;2022-07-26T23:31:08;98615.63;;;16.69;86.03
23118;BME280;11728;50.624;6.014;2022-07-26T23:36:10;98617.31;;;16.72;86.39
23118;BME280;11728;50.624;6.014;2022-07-26T23:41:22;98623.06;;;16.83;86.50
23118;BME280;11728;50.624;6.014;2022-07-26T23:46:37;98620.44;;;16.81;86.15
23118;BME280;11728;50.624;6.014;2022-07-26T23:51:38;98624.06;;;16.80;86.13
23118;BME280;11728;50.624;6.014;2022-07-26T23:56:51;98617.13;;;16.76;86.25
